Time;durP1;ratioP1;P1;durP2;ratioP2;P2;SDS_P1;SDS_P2;PMS_P1;PMS_P2;Temp;Humidity;BMP_temperature;BMP_pressure;BME280_temperature;BME280_humidity;BME280_pressure;Samples;Min_cycle;Max_cycle;Signal;HPM_P1;HPM_P2
2022/06/09 04:03:25;;;;;;;1.00;1.00;;;14.00;99.90;;;;;;6148165;23;20429;-87
2022/06/09 04:05:51;;;;;;;1.07;1.03;;;14.10;99.90;;;;;;4934856;29;21011;-62
2022/06/09 04:08:16;;;;;;;1.57;1.47;;;14.10;99.90;;;;;;4936986;29;20413;-62
2022/06/09 04:10:42;;;;;;;1.00;1.00;;;14.10;99.90;;;;;;4936928;29;20179;-63
2022/06/09 04:13:08;;;;;;;1.57;1.47;;;14.10;99.90;;;;;;4934051;29;20686;-63
2022/06/09 04:15:34;;;;;;;1.13;1.13;;;14.20;99.90;;;;;;4917892;29;20244;-63
2022/06/09 04:17:59;;;;;;;1.17;1.17;;;14.20;99.90;;;;;;4916117;29;20229;-63
2022/06/09 04:20:26;;;;;;;1.77;1.67;;;14.20;99.90;;;;;;4917778;29;20940;-63
2022/06/09 04:22:52;;;;;;;1.70;1.20;;;14.30;99.90;;;;;;4917269;29;20183;-63
2022/06/09 04:25:18;;;;;;;1.60;1.50;;;14.30;99.90;;;;;;4916264;29;20428;-62
2022/06/09 04:27:45;;;;;;;1.80;1.63;;;14.40;99.90;;;;;;4917576;29;20516;-63
2022/06/09 04:30:12;;;;;;;1.87;1.67;;;14.50;99.90;;;;;;4917671;29;20441;-63
2022/06/09 04:32:38;;;;;;;1.90;1.33;;;14.60;99.90;;;;;;4916480;29;20424;-63
2022/06/09 04:35:04;;;;;;;1.23;1.23;;;14.70;99.90;;;;;;4916672;29;20809;-63
2022/06/09 04:40:15;;;;;;;1.20;1.20;;;14.90;99.90;;;;;;4917538;29;20537;-62
2022/06/09 04:42:40;;;;;;;1.43;1.30;;;14.90;99.90;;;;;;4917111;29;20860;-62
2022/06/09 04:45:07;;;;;;;1.57;1.50;;;15.00;99.90;;;;;;4917087;29;20193;-62
2022/06/09 04:47:32;;;;;;;1.60;1.50;;;15.10;99.90;;;;;;4931241;29;20174;-62
2022/06/09 04:49:58;;;;;;;1.30;1.20;;;15.10;99.90;;;;;;4917208;29;20933;-62
2022/06/09 04:52:24;;;;;;;1.60;1.43;;;15.20;99.90;;;;;;4916828;29;20184;-62
2022/06/09 04:54:50;;;;;;;1.50;1.40;;;15.20;99.90;;;;;;4916345;29;20245;-62
2022/06/09 04:57:15;;;;;;;2.87;1.93;;;15.20;99.90;;;;;;4916585;29;20201;-62
2022/06/09 04:59:41;;;;;;;1.03;1.03;;;15.20;99.90;;;;;;4916976;29;20969;-62
2022/06/09 05:02:06;;;;;;;0.80;0.80;;;15.10;99.90;;;;;;4917296;29;20181;-62
2022/06/09 05:04:32;;;;;;;1.43;1.27;;;15.10;99.90;;;;;;4916647;29;20212;-62
2022/06/09 05:06:58;;;;;;;1.40;1.30;;;15.10;99.90;;;;;;4917193;29;20178;-63
2022/06/09 05:09:23;;;;;;;1.43;1.33;;;15.10;99.90;;;;;;4916867;29;20182;-62
2022/06/09 05:11:49;;;;;;;1.40;1.30;;;15.10;99.90;;;;;;4918450;29;20257;-62
2022/06/09 05:14:14;;;;;;;2.43;1.53;;;15.30;99.90;;;;;;4920476;29;20690;-62
2022/06/09 05:16:40;;;;;;;2.73;1.27;;;15.40;99.90;;;;;;4921398;29;20178;-64
2022/06/09 05:19:05;;;;;;;1.30;1.20;;;15.50;99.90;;;;;;4920057;29;20587;-63
2022/06/09 05:21:31;;;;;;;1.40;1.30;;;15.70;99.90;;;;;;4920825;29;20266;-62
2022/06/09 05:23:57;;;;;;;1.60;1.03;;;15.80;99.90;;;;;;4917764;29;20203;-61
2022/06/09 05:26:22;;;;;;;5.00;1.60;;;16.00;99.90;;;;;;4920643;29;20694;-63
2022/06/09 05:28:48;;;;;;;2.30;1.43;;;16.10;99.90;;;;;;4920857;29;20179;-63
2022/06/09 05:31:14;;;;;;;5.43;2.50;;;16.20;99.90;;;;;;4915949;29;20264;-62
2022/06/09 05:33:41;;;;;;;2.10;1.90;;;16.30;99.90;;;;;;4906026;29;20211;-62
2022/06/09 05:36:07;;;;;;;1.70;1.57;;;16.30;99.90;;;;;;4920992;29;20633;-63
2022/06/09 05:46:46;;;;;;;1.47;0.80;;;16.40;99.90;;;;;;4920702;29;20485;-63
2022/06/09 05:49:12;;;;;;;1.40;1.30;;;16.20;99.90;;;;;;4902243;29;20968;-64
2022/06/09 05:51:38;;;;;;;1.60;1.00;;;16.30;99.90;;;;;;4901466;29;20416;-62
2022/06/09 05:54:04;;;;;;;1.10;1.10;;;16.30;99.90;;;;;;4901247;29;20206;-63
2022/06/09 05:56:30;;;;;;;4.80;2.43;;;16.40;99.90;;;;;;4901436;29;20404;-62
2022/06/09 05:58:55;;;;;;;1.37;1.37;;;16.50;99.90;;;;;;4901476;29;20380;-62
2022/06/09 06:01:21;;;;;;;1.70;1.60;;;16.60;99.90;;;;;;4901388;29;20184;-62
2022/06/09 06:03:47;;;;;;;1.57;1.10;;;16.80;99.90;;;;;;4902900;29;20200;-63
2022/06/09 06:08:57;;;;;;;0.97;0.93;;;16.90;99.90;;;;;;4901147;29;20183;-62
2022/06/09 06:11:23;;;;;;;1.27;1.07;;;17.00;99.90;;;;;;4901343;29;20405;-63
2022/06/09 06:13:49;;;;;;;1.80;1.40;;;17.10;99.90;;;;;;4902120;29;20272;-63
2022/06/09 06:16:15;;;;;;;4.90;2.00;;;17.20;99.90;;;;;;4901518;29;20630;-63
2022/06/09 06:18:41;;;;;;;1.00;1.00;;;17.30;99.90;;;;;;4920983;29;20471;-62
2022/06/09 06:21:07;;;;;;;1.27;1.27;;;17.30;99.90;;;;;;4923248;29;20752;-62
2022/06/09 06:23:33;;;;;;;0.93;0.93;;;17.30;99.90;;;;;;4919960;29;20201;-63
2022/06/09 06:25:59;;;;;;;1.40;1.10;;;17.40;99.90;;;;;;4919775;29;20421;-71
2022/06/09 06:28:25;;;;;;;1.60;1.50;;;17.60;99.90;;;;;;4919839;29;20445;-71
2022/06/09 06:30:51;;;;;;;1.00;1.00;;;17.70;99.90;;;;;;4919815;29;20570;-62
2022/06/09 06:33:17;;;;;;;1.30;1.20;;;17.90;99.90;;;;;;4917480;29;20494;-63
2022/06/09 06:35:43;;;;;;;1.63;1.00;;;18.00;99.90;;;;;;4934002;29;20429;-67
2022/06/09 06:38:09;;;;;;;1.23;1.23;;;18.10;99.90;;;;;;4919197;29;20616;-70
2022/06/09 06:40:35;;;;;;;1.30;1.17;;;18.20;99.90;;;;;;4919490;29;20428;-70
2022/06/09 06:43:01;;;;;;;3.23;1.93;;;18.30;99.90;;;;;;4917517;29;20525;-71
2022/06/09 06:45:27;;;;;;;0.90;0.90;;;18.30;99.90;;;;;;4919251;29;20505;-68
2022/06/09 06:47:54;;;;;;;1.30;1.20;;;18.40;99.90;;;;;;4902888;29;20222;-69
2022/06/09 06:50:20;;;;;;;2.20;1.10;;;18.40;99.90;;;;;;4900311;29;20434;-68
2022/06/09 06:52:46;;;;;;;2.40;1.20;;;18.60;99.90;;;;;;4899963;29;20791;-68
2022/06/09 06:55:14;;;;;;;1.10;0.97;;;18.80;99.90;;;;;;4907783;29;20450;-68
2022/06/09 06:57:40;;;;;;;1.00;1.00;;;19.00;99.90;;;;;;4919147;29;20202;-68
2022/06/09 07:00:07;;;;;;;1.23;0.90;;;19.20;99.90;;;;;;4919279;29;20412;-67
2022/06/09 07:02:33;;;;;;;1.70;1.07;;;19.30;99.90;;;;;;4917184;29;20397;-67
2022/06/09 07:04:59;;;;;;;1.27;1.20;;;19.50;99.90;;;;;;4918630;29;20969;-68
2022/06/09 07:07:25;;;;;;;1.37;0.90;;;19.70;99.90;;;;;;4919014;29;20198;-68
2022/06/09 07:09:51;;;;;;;1.03;1.03;;;19.90;99.90;;;;;;4911709;29;20187;-69
2022/06/09 07:12:17;;;;;;;0.70;0.70;;;20.10;99.90;;;;;;4899838;29;20390;-69
2022/06/09 07:14:42;;;;;;;1.57;1.10;;;20.10;99.90;;;;;;4899765;29;20531;-64
2022/06/09 07:17:08;;;;;;;3.10;1.10;;;20.00;99.90;;;;;;4899989;29;20995;-65
2022/06/09 07:19:33;;;;;;;1.57;0.77;;;20.10;99.90;;;;;;4899646;29;20176;-64
2022/06/09 07:21:59;;;;;;;1.00;1.00;;;20.20;99.90;;;;;;4907122;29;20251;-67
2022/06/09 07:24:25;;;;;;;1.23;0.90;;;20.40;99.90;;;;;;4908336;29;20286;-64
2022/06/09 07:26:52;;;;;;;0.93;0.90;;;20.40;99.90;;;;;;4907291;29;20645;-65
2022/06/09 07:29:18;;;;;;;1.57;1.47;;;20.20;99.90;;;;;;4907282;29;20955;-65
2022/06/09 07:31:44;;;;;;;4.27;1.10;;;20.40;99.90;;;;;;4908579;29;20488;-67
2022/06/09 07:34:10;;;;;;;0.90;0.90;;;20.70;99.90;;;;;;4905405;29;21023;-65
2022/06/09 07:36:36;;;;;;;1.33;1.23;;;21.30;99.90;;;;;;4907551;29;20175;-64
2022/06/09 07:39:03;;;;;;;2.63;1.50;;;21.60;99.90;;;;;;4906843;29;20422;-65
2022/06/09 07:41:29;;;;;;;0.90;0.90;;;21.80;99.90;;;;;;4908319;29;20757;-65
2022/06/09 07:43:55;;;;;;;4.83;0.80;;;22.40;99.50;;;;;;4921051;29;20535;-65
2022/06/09 07:46:21;;;;;;;1.17;0.87;;;23.20;98.20;;;;;;4906867;29;20433;-68
2022/06/09 07:48:47;;;;;;;1.93;0.67;;;24.30;97.30;;;;;;4909396;29;20401;-67
2022/06/09 07:51:13;;;;;;;1.60;1.00;;;25.30;95.10;;;;;;4909113;29;20514;-64
2022/06/09 07:53:39;;;;;;;2.10;0.90;;;25.80;92.10;;;;;;4917680;29;20459;-65
2022/06/09 07:56:05;;;;;;;2.20;1.63;;;25.60;90.70;;;;;;4915398;29;20438;-64
2022/06/09 07:58:31;;;;;;;2.20;1.07;;;25.20;92.00;;;;;;4905444;29;20205;-64
2022/06/09 08:00:56;;;;;;;3.70;0.90;;;25.30;92.00;;;;;;4911033;29;20803;-64
2022/06/09 08:03:25;;;;;;;2.63;0.87;;;25.40;92.10;;;;;;4917398;29;20217;-65
2022/06/09 08:05:51;;;;;;;1.20;1.10;;;25.90;91.50;;;;;;4901062;28;20194;-65
2022/06/09 08:08:19;;;;;;;0.70;0.70;;;26.90;91.60;;;;;;4898866;29;20498;-66
2022/06/09 08:10:47;;;;;;;1.10;0.93;;;27.60;86.70;;;;;;4899069;29;20210;-68
2022/06/09 08:13:14;;;;;;;0.60;0.60;;;28.50;83.80;;;;;;4898460;29;20487;-67
2022/06/09 08:15:42;;;;;;;0.90;0.90;;;29.20;81.70;;;;;;4897585;29;20943;-68
2022/06/09 08:18:08;;;;;;;4.20;1.57;;;30.20;77.50;;;;;;4898950;29;20470;-67
2022/06/09 08:20:35;;;;;;;1.07;0.90;;;30.10;73.80;;;;;;4913081;29;20514;-68
2022/06/09 08:23:04;;;;;;;2.20;0.87;;;29.90;73.70;;;;;;4917003;29;20186;-67
2022/06/09 08:25:31;;;;;;;3.60;0.97;;;29.90;73.00;;;;;;4917528;29;20799;-67
2022/06/09 08:27:57;;;;;;;0.60;0.60;;;30.20;71.60;;;;;;4917740;29;20459;-68
2022/06/09 08:30:24;;;;;;;1.50;1.20;;;30.30;70.70;;;;;;4917377;29;20418;-68
2022/06/09 08:32:49;;;;;;;0.73;0.73;;;30.90;69.80;;;;;;4917075;29;20502;-69
2022/06/09 08:35:17;;;;;;;0.90;0.80;;;31.20;70.20;;;;;;4915800;29;20422;-68
2022/06/09 08:37:48;;;;;;;1.50;0.73;;;31.50;68.70;;;;;;4900312;29;20210;-67
2022/06/09 08:40:18;;;;;;;1.03;0.90;;;31.70;66.20;;;;;;4897055;29;20419;-66
2022/06/09 08:43:10;;;;;;;0.80;0.80;;;30.60;64.50;;;;;;4896382;29;20423;-68
2022/06/09 08:45:37;;;;;;;0.80;0.67;;;29.10;67.40;;;;;;4896384;29;20506;-67
2022/06/09 08:48:06;;;;;;;0.80;0.80;;;28.90;71.10;;;;;;4896612;29;20467;-68
2022/06/09 08:50:39;;;;;;;1.83;0.90;;;29.40;70.80;;;;;;4898093;29;20462;-68
2022/06/09 08:53:27;;;;;;;2.53;1.20;;;29.30;68.70;;;;;;4896207;29;20912;-68
2022/06/09 08:56:10;;;;;;;0.80;0.80;;;27.90;71.90;;;;;;4896539;29;20418;-68
2022/06/09 08:58:47;;;;;;;1.07;0.97;;;27.10;71.70;;;;;;4898490;29;20808;-67
2022/06/09 09:01:40;;;;;;;0.93;0.77;;;26.60;75.90;;;;;;4898313;29;20411;-67
2022/06/09 09:04:17;;;;;;;2.00;1.13;;;26.80;75.00;;;;;;4898630;29;20494;-67
2022/06/09 09:07:07;;;;;;;1.03;1.00;;;27.50;74.00;;;;;;4898187;29;20454;-67
2022/06/09 09:09:34;;;;;;;1.70;0.90;;;28.20;74.10;;;;;;4898171;29;20911;-67
2022/06/09 09:12:12;;;;;;;1.80;0.90;;;29.00;71.60;;;;;;4898138;29;20407;-67
2022/06/09 09:14:55;;;;;;;1.17;1.10;;;29.30;70.60;;;;;;4898149;29;20429;-68
2022/06/09 09:18:00;;;;;;;2.10;1.20;;;29.10;67.90;;;;;;4898207;29;20578;-67
2022/06/09 09:20:49;;;;;;;0.90;0.90;;;28.40;68.20;;;;;;4898366;29;20411;-67
2022/06/09 09:23:18;;;;;;;4.63;1.40;;;27.10;71.40;;;;;;4897662;29;20431;-67
2022/06/09 09:25:50;;;;;;;2.50;0.97;;;26.40;75.40;;;;;;4898112;29;20850;-67
2022/06/09 09:28:28;;;;;;;1.47;0.70;;;26.90;77.00;;;;;;4898133;29;20425;-68
2022/06/09 09:31:08;;;;;;;1.03;0.90;;;28.00;73.00;;;;;;4898468;29;20420;-68
2022/06/09 09:33:34;;;;;;;1.20;1.10;;;29.00;68.90;;;;;;4897907;29;20450;-69
2022/06/09 09:36:17;;;;;;;0.90;0.90;;;29.60;69.20;;;;;;4897956;29;20414;-68
2022/06/09 09:38:49;;;;;;;1.97;0.90;;;29.70;67.00;;;;;;4898085;29;20493;-69
2022/06/09 09:41:33;;;;;;;1.33;0.90;;;29.90;64.50;;;;;;4898415;29;20435;-68
2022/06/09 09:44:12;;;;;;;0.90;0.70;;;30.00;66.20;;;;;;4897544;29;20467;-69
2022/06/09 09:46:39;;;;;;;1.00;0.90;;;30.50;64.40;;;;;;4898001;29;20417;-68
2022/06/09 09:49:15;;;;;;;1.73;0.83;;;31.00;62.40;;;;;;4914591;29;20477;-69
2022/06/09 09:51:46;;;;;;;2.17;1.13;;;31.60;63.60;;;;;;4904990;29;20433;-68
2022/06/09 09:54:39;;;;;;;1.10;1.10;;;32.10;60.60;;;;;;4897451;29;20435;-67
2022/06/09 09:57:21;;;;;;;0.97;0.80;;;32.80;60.10;;;;;;4909834;29;20475;-68
2022/06/09 09:59:51;;;;;;;0.93;0.93;;;33.40;57.00;;;;;;4901219;29;20416;-67
2022/06/09 10:08:35;;;;;;;0.90;0.90;;;33.50;56.70;;;;;;4920337;29;20478;-68
2022/06/09 10:11:53;;;;;;;0.83;0.83;;;33.20;58.20;;;;;;4920336;29;20429;-68
2022/06/09 10:13:50;;;;;;;1.40;1.20;;;33.40;56.40;;;;;;4919359;29;20438;-67
2022/06/09 10:16:16;;;;;;;0.80;0.80;;;33.50;56.90;;;;;;4920276;29;20501;-68
2022/06/09 10:18:45;;;;;;;1.43;1.17;;;33.60;56.30;;;;;;4901467;29;20490;-66
2022/06/09 10:21:13;;;;;;;5.97;1.50;;;33.40;55.80;;;;;;4900619;29;20528;-68
2022/06/09 10:23:41;;;;;;;1.10;1.00;;;33.20;56.60;;;;;;4900450;29;20517;-68
2022/06/09 10:26:16;;;;;;;1.70;0.83;;;33.00;55.70;;;;;;4911392;29;20423;-68
2022/06/09 10:28:59;;;;;;;0.90;0.90;;;32.70;57.20;;;;;;4912817;29;20525;-67
2022/06/09 10:31:53;;;;;;;1.07;0.97;;;32.40;56.20;;;;;;4899315;29;20419;-67
2022/06/09 10:34:35;;;;;;;1.40;0.90;;;32.00;57.30;;;;;;4900374;29;20466;-71
2022/06/09 10:37:13;;;;;;;2.40;2.27;;;31.70;58.40;;;;;;4900716;29;21017;-72
2022/06/09 10:39:57;;;;;;;1.13;0.90;;;31.00;57.40;;;;;;4901608;29;20918;-65
2022/06/09 10:42:28;;;;;;;0.80;0.80;;;29.80;59.10;;;;;;4915238;29;20427;-67
2022/06/09 10:44:56;;;;;;;0.60;0.60;;;29.20;62.90;;;;;;4900315;29;20438;-66
2022/06/09 10:56:32;;;;;;;3.93;2.83;;;28.90;60.20;;;;;;4916335;29;20828;-68
2022/06/09 10:59:30;;;;;;;2.30;1.30;;;29.10;60.00;;;;;;4918967;29;20461;-67
2022/06/09 11:01:56;;;;;;;1.83;1.00;;;29.10;58.80;;;;;;4918923;29;20418;-67
2022/06/09 11:04:24;;;;;;;1.70;1.40;;;28.60;60.20;;;;;;4918447;29;20446;-67
2022/06/09 11:07:02;;;;;;;2.73;0.97;;;28.10;61.90;;;;;;4919114;29;20575;-67
2022/06/09 11:09:49;;;;;;;2.63;0.70;;;27.20;64.50;;;;;;4914577;29;20401;-66
2022/06/09 11:12:23;;;;;;;1.53;1.43;;;26.30;67.70;;;;;;4899897;29;20374;-69
2022/06/09 11:15:02;;;;;;;3.53;0.80;;;25.70;73.70;;;;;;4899966;29;20446;-66
2022/06/09 11:17:52;;;;;;;0.90;0.67;;;25.50;73.40;;;;;;4904404;29;20537;-66
2022/06/09 11:20:58;;;;;;;1.00;1.00;;;25.20;72.30;;;;;;4905115;29;20915;-67
2022/06/09 11:23:35;;;;;;;1.33;0.87;;;24.90;71.90;;;;;;4916018;29;20888;-67
2022/06/09 11:26:16;;;;;;;1.70;0.80;;;24.40;77.40;;;;;;4934934;29;20431;-66
2022/06/09 11:28:52;;;;;;;1.40;1.20;;;24.00;79.10;;;;;;4924787;29;20428;-70
2022/06/09 11:31:39;;;;;;;1.67;1.10;;;23.80;80.00;;;;;;4918988;29;20748;-70
2022/06/09 11:34:12;;;;;;;2.93;1.10;;;23.70;82.30;;;;;;4916908;29;20413;-71
2022/06/09 11:36:58;;;;;;;2.20;0.93;;;23.60;81.40;;;;;;4918665;29;20389;-70
2022/06/09 11:39:42;;;;;;;0.83;0.83;;;23.50;80.10;;;;;;4906428;29;20451;-65
2022/06/09 11:42:38;;;;;;;0.73;0.73;;;23.40;78.80;;;;;;4899348;29;20394;-64
2022/06/09 11:45:38;;;;;;;1.73;0.70;;;23.30;78.80;;;;;;4899499;29;20791;-63
2022/06/09 11:48:09;;;;;;;1.90;0.80;;;23.10;78.20;;;;;;4899138;29;20924;-63
2022/06/09 11:50:39;;;;;;;3.90;0.70;;;22.80;76.00;;;;;;4899263;29;20530;-63
2022/06/09 11:53:06;;;;;;;1.70;0.90;;;22.60;76.00;;;;;;4898435;29;20432;-63
2022/06/09 11:58:35;;;;;;;0.80;0.80;;;22.60;75.20;;;;;;4917739;29;20438;-63
2022/06/09 12:01:18;;;;;;;1.10;0.90;;;22.60;80.00;;;;;;4908148;29;20414;-68
2022/06/09 12:03:59;;;;;;;2.60;1.00;;;22.50;82.40;;;;;;4935599;28;20420;-68
2022/06/09 12:06:59;;;;;;;0.83;0.83;;;22.50;85.00;;;;;;4917795;29;20442;-68
2022/06/09 12:09:53;;;;;;;0.73;0.73;;;22.70;81.20;;;;;;4919569;29;20454;-71
2022/06/09 12:12:27;;;;;;;0.80;0.80;;;22.80;80.80;;;;;;4917746;29;20399;-69
2022/06/09 12:15:27;;;;;;;0.80;0.80;;;22.70;77.80;;;;;;4902801;29;20480;-64
2022/06/09 12:18:23;;;;;;;1.30;1.20;;;22.60;80.10;;;;;;4901524;29;20870;-61
2022/06/09 12:20:49;;;;;;;1.03;0.90;;;22.60;80.80;;;;;;4910862;29;20962;-63
2022/06/09 12:23:36;;;;;;;1.10;1.10;;;22.40;79.00;;;;;;4902670;29;20425;-63
2022/06/09 12:26:16;;;;;;;1.27;0.80;;;22.50;80.10;;;;;;4915644;29;20284;-64
2022/06/09 12:29:00;;;;;;;1.13;1.00;;;22.40;80.70;;;;;;4917629;29;20416;-64
2022/06/09 12:31:31;;;;;;;1.07;0.90;;;22.30;82.70;;;;;;4917357;29;20396;-63
2022/06/09 12:34:16;;;;;;;1.23;1.13;;;22.20;84.50;;;;;;4917025;29;20428;-63
2022/06/09 12:36:52;;;;;;;1.00;0.90;;;22.20;84.30;;;;;;4917588;29;20395;-64
2022/06/09 12:39:25;;;;;;;1.00;1.00;;;22.30;83.20;;;;;;4902033;29;20519;-63
2022/06/09 12:41:55;;;;;;;1.07;1.00;;;22.40;83.10;;;;;;4915387;29;20418;-65
2022/06/09 12:44:23;;;;;;;1.10;0.97;;;22.40;81.00;;;;;;4917002;29;20496;-65
2022/06/09 12:47:12;;;;;;;1.00;0.90;;;22.40;79.70;;;;;;4917505;29;20381;-65
2022/06/09 12:49:39;;;;;;;1.10;1.10;;;22.40;79.90;;;;;;4917482;29;20411;-64
2022/06/09 12:52:18;;;;;;;1.20;1.10;;;22.40;79.80;;;;;;4916981;29;20385;-63
2022/06/09 12:54:44;;;;;;;1.17;0.87;;;22.40;79.40;;;;;;4897765;29;20409;-64
2022/06/09 12:57:24;;;;;;;0.80;0.80;;;22.50;80.50;;;;;;4896875;29;20454;-63
2022/06/09 13:00:14;;;;;;;0.80;0.70;;;22.50;79.80;;;;;;4896863;29;20178;-64
2022/06/09 13:02:40;;;;;;;1.07;0.97;;;22.60;78.50;;;;;;4897510;29;20382;-64
2022/06/09 13:05:12;;;;;;;1.00;1.00;;;22.60;78.20;;;;;;4898238;29;20450;-65
2022/06/09 13:07:46;;;;;;;2.53;1.20;;;22.60;79.40;;;;;;4903911;29;20489;-65
2022/06/09 13:10:19;;;;;;;0.70;0.70;;;22.60;79.60;;;;;;4915359;29;20388;-65
2022/06/09 13:12:50;;;;;;;1.57;1.00;;;22.70;79.40;;;;;;4913443;29;20874;-64
2022/06/09 13:15:38;;;;;;;0.70;0.70;;;22.80;76.60;;;;;;4915109;29;20503;-65
2022/06/09 13:18:31;;;;;;;0.70;0.70;;;22.90;77.50;;;;;;4907609;29;20447;-64
2022/06/09 13:20:59;;;;;;;1.40;1.07;;;23.10;78.80;;;;;;4915168;29;20776;-65
2022/06/09 13:23:28;;;;;;;1.23;0.70;;;23.30;78.70;;;;;;4900345;29;20971;-64
2022/06/09 13:25:54;;;;;;;0.70;0.70;;;23.30;77.80;;;;;;4898081;29;20443;-65
2022/06/09 13:28:34;;;;;;;1.17;1.07;;;23.10;77.40;;;;;;4910004;29;20453;-64
2022/06/09 13:31:03;;;;;;;1.00;0.80;;;22.80;77.90;;;;;;4915585;29;20407;-64
2022/06/09 13:33:47;;;;;;;1.33;0.93;;;22.70;78.70;;;;;;4918262;29;20440;-64
2022/06/09 13:36:27;;;;;;;0.73;0.73;;;22.60;75.10;;;;;;4901640;29;20421;-65
2022/06/09 13:38:53;;;;;;;1.17;1.07;;;22.40;75.40;;;;;;4901748;29;20475;-64
2022/06/09 13:41:29;;;;;;;0.80;0.80;;;22.50;78.80;;;;;;4901556;29;20411;-64
2022/06/09 13:43:58;;;;;;;1.93;1.30;;;22.60;78.90;;;;;;4901409;29;20448;-65
2022/06/09 13:46:29;;;;;;;3.40;2.50;;;22.70;80.30;;;;;;4901617;29;20804;-64
2022/06/09 13:49:04;;;;;;;1.00;1.00;;;22.80;78.40;;;;;;4901623;29;20506;-64
2022/06/09 13:51:55;;;;;;;2.03;1.80;;;22.90;77.00;;;;;;4903919;29;20400;-64
2022/06/09 13:54:30;;;;;;;1.17;1.07;;;22.80;76.80;;;;;;4901112;29;20929;-64
2022/06/09 13:56:56;;;;;;;1.03;0.90;;;22.90;77.50;;;;;;4901267;29;20729;-64
2022/06/09 13:59:22;;;;;;;1.30;1.10;;;22.90;78.30;;;;;;4908845;29;20399;-64
2022/06/09 14:01:50;;;;;;;1.20;1.10;;;22.90;77.40;;;;;;4920675;29;20181;-63
2022/06/09 14:04:41;;;;;;;3.83;1.40;;;22.90;78.30;;;;;;4919558;29;20861;-63
2022/06/09 14:07:08;;;;;;;1.00;1.00;;;23.10;79.40;;;;;;4909808;29;20794;-63
2022/06/09 14:09:34;;;;;;;1.07;0.97;;;23.10;77.70;;;;;;4909808;29;20432;-64
2022/06/09 14:12:00;;;;;;;1.10;1.10;;;23.20;77.20;;;;;;4919945;29;20437;-64
2022/06/09 14:14:25;;;;;;;1.50;1.40;;;23.00;77.00;;;;;;4919760;29;20204;-64
2022/06/09 14:16:51;;;;;;;1.40;1.30;;;22.90;78.90;;;;;;4919860;29;20174;-64
2022/06/09 14:19:18;;;;;;;2.67;1.80;;;22.70;76.70;;;;;;4902815;29;20179;-65
2022/06/09 14:21:44;;;;;;;1.40;1.40;;;22.70;77.00;;;;;;4905942;29;20262;-64
2022/06/09 14:24:19;;;;;;;1.50;1.40;;;22.70;76.20;;;;;;4919261;29;20409;-64
2022/06/09 14:26:51;;;;;;;1.73;1.63;;;22.60;77.60;;;;;;4919777;29;20810;-63
2022/06/09 14:29:18;;;;;;;1.27;1.27;;;22.40;78.00;;;;;;4918531;29;20587;-63
2022/06/09 14:31:47;;;;;;;1.70;1.60;;;22.30;79.00;;;;;;4919704;29;20381;-64
2022/06/09 14:34:15;;;;;;;1.50;1.40;;;22.10;78.60;;;;;;4919078;29;20445;-64
2022/06/09 14:36:42;;;;;;;1.20;1.20;;;21.90;79.20;;;;;;4918840;29;20411;-63
2022/06/09 14:39:08;;;;;;;1.83;1.73;;;21.90;79.20;;;;;;4910909;29;20460;-65
2022/06/09 14:41:35;;;;;;;1.60;1.50;;;21.70;77.80;;;;;;4900564;29;20391;-65
2022/06/09 14:44:01;;;;;;;3.80;1.67;;;21.60;78.60;;;;;;4899601;29;20423;-64
2022/06/09 14:46:32;;;;;;;1.43;1.43;;;21.50;79.00;;;;;;4900713;29;20423;-65
2022/06/09 14:48:59;;;;;;;3.40;1.40;;;21.40;80.10;;;;;;4901472;29;20404;-64
2022/06/09 14:51:25;;;;;;;1.80;1.20;;;21.20;81.90;;;;;;4906933;29;20443;-65
2022/06/09 14:53:51;;;;;;;1.50;1.40;;;21.30;83.70;;;;;;4917552;29;20438;-63
2022/06/09 14:56:22;;;;;;;1.13;1.10;;;21.30;84.30;;;;;;4931712;29;20437;-63
2022/06/09 14:58:48;;;;;;;2.97;1.57;;;21.30;85.50;;;;;;4917560;29;20534;-64
2022/06/09 15:01:15;;;;;;;2.30;1.83;;;21.30;84.80;;;;;;4919112;29;20491;-62
2022/06/09 15:03:42;;;;;;;1.87;1.63;;;21.30;84.80;;;;;;4918385;29;20465;-63
2022/06/09 15:06:11;;;;;;;1.30;1.20;;;21.40;85.50;;;;;;4915318;29;20845;-63
2022/06/09 15:08:38;;;;;;;1.90;1.80;;;21.50;85.30;;;;;;4918959;29;20418;-63
2022/06/09 15:11:04;;;;;;;2.37;1.43;;;21.60;85.50;;;;;;4917503;29;20417;-64
2022/06/09 15:13:30;;;;;;;1.33;1.33;;;21.70;85.60;;;;;;4918339;29;20965;-64
2022/06/09 15:16:01;;;;;;;3.93;2.20;;;21.90;85.90;;;;;;4918128;29;20432;-63
2022/06/09 15:18:27;;;;;;;1.57;1.47;;;22.10;84.70;;;;;;4918788;29;20461;-64
2022/06/09 15:20:53;;;;;;;3.40;1.57;;;22.30;84.00;;;;;;4907327;29;20432;-64
2022/06/09 15:23:19;;;;;;;1.27;1.17;;;22.50;82.60;;;;;;4899581;29;20518;-63
2022/06/09 15:25:45;;;;;;;1.20;1.13;;;22.70;82.90;;;;;;4910505;29;20426;-64
2022/06/09 15:28:18;;;;;;;1.20;1.10;;;22.90;82.80;;;;;;4918463;29;20182;-64
2022/06/09 15:30:45;;;;;;;2.90;1.50;;;23.10;81.10;;;;;;4918496;29;20936;-65
2022/06/09 15:33:11;;;;;;;2.67;1.33;;;23.10;81.80;;;;;;4917754;29;20442;-65
2022/06/09 15:35:38;;;;;;;0.97;0.97;;;23.00;82.60;;;;;;4917300;29;20430;-61
2022/06/09 15:38:07;;;;;;;2.77;2.13;;;22.90;81.40;;;;;;4918173;29;20476;-65
2022/06/09 15:40:38;;;;;;;2.03;1.93;;;22.80;81.50;;;;;;4918178;29;20858;-64
2022/06/09 15:43:04;;;;;;;1.43;1.33;;;22.70;80.40;;;;;;4915940;29;20878;-63
2022/06/09 15:45:36;;;;;;;1.70;1.60;;;22.60;80.20;;;;;;4900078;29;20485;-63
2022/06/09 15:48:03;;;;;;;1.33;1.33;;;22.40;81.40;;;;;;4900905;29;20444;-63
2022/06/09 15:50:28;;;;;;;1.87;1.77;;;22.20;82.60;;;;;;4917844;29;20420;-63
2022/06/09 15:52:54;;;;;;;1.50;1.40;;;22.00;82.50;;;;;;4916943;29;20416;-62
2022/06/09 15:55:20;;;;;;;1.40;1.33;;;21.60;81.40;;;;;;4898410;29;20720;-65
2022/06/09 15:57:45;;;;;;;2.43;1.80;;;21.40;82.80;;;;;;4899284;29;20203;-62
2022/06/09 16:00:31;;;;;;;3.07;2.10;;;21.00;84.50;;;;;;4905810;29;20627;-64
2022/06/09 16:02:57;;;;;;;1.27;1.17;;;20.90;85.90;;;;;;4915981;29;20257;-64
2022/06/09 16:05:24;;;;;;;1.53;1.40;;;20.70;87.40;;;;;;4916755;29;20961;-63
2022/06/09 16:07:51;;;;;;;1.53;1.43;;;20.40;90.00;;;;;;4931347;29;20408;-63
2022/06/09 16:10:44;;;;;;;2.13;1.47;;;20.20;91.70;;;;;;4917930;29;20484;-64
2022/06/09 16:13:10;;;;;;;1.43;1.33;;;20.00;93.70;;;;;;4914273;29;20410;-64
2022/06/09 16:15:37;;;;;;;1.27;1.07;;;19.80;95.50;;;;;;4913447;29;20795;-63
2022/06/09 16:18:04;;;;;;;1.30;1.23;;;19.70;96.30;;;;;;4917188;29;20433;-64
2022/06/09 16:20:33;;;;;;;0.80;0.80;;;19.60;94.20;;;;;;4910394;29;20796;-63
2022/06/09 16:22:59;;;;;;;1.43;1.30;;;19.60;93.70;;;;;;4898712;29;20418;-63
2022/06/09 16:25:26;;;;;;;0.90;0.90;;;19.60;93.50;;;;;;4917307;29;20492;-64
2022/06/09 16:27:52;;;;;;;1.30;1.30;;;19.60;93.60;;;;;;4917752;29;20497;-63
2022/06/09 16:30:23;;;;;;;6.53;1.30;;;19.60;93.60;;;;;;4915925;29;20525;-64
2022/06/09 16:32:49;;;;;;;0.93;0.93;;;19.50;93.00;;;;;;4916446;29;20430;-64
2022/06/09 16:35:15;;;;;;;1.70;1.60;;;19.60;92.50;;;;;;4916684;29;20449;-63
2022/06/09 16:37:41;;;;;;;1.27;1.17;;;19.60;92.70;;;;;;4916993;29;20217;-64
2022/06/09 16:40:13;;;;;;;0.87;0.87;;;19.50;92.00;;;;;;4917344;29;20490;-64
2022/06/09 16:42:38;;;;;;;0.80;0.80;;;19.40;92.00;;;;;;4915714;29;20459;-64
2022/06/09 16:45:05;;;;;;;0.93;0.93;;;19.40;91.80;;;;;;4905532;29;20450;-63
2022/06/09 16:47:31;;;;;;;1.00;1.00;;;19.30;91.80;;;;;;4906513;29;20294;-63
2022/06/09 16:50:00;;;;;;;1.37;0.80;;;19.20;92.00;;;;;;4898467;29;20522;-63
2022/06/09 16:52:26;;;;;;;0.60;0.60;;;19.00;91.60;;;;;;4898224;29;20182;-64
2022/06/09 16:54:52;;;;;;;0.60;0.60;;;18.90;91.20;;;;;;4898448;29;20459;-64
2022/06/09 16:57:17;;;;;;;0.60;0.60;;;18.80;91.30;;;;;;4898230;29;20467;-64
2022/06/09 16:59:43;;;;;;;0.80;0.80;;;18.80;91.60;;;;;;4903165;29;20227;-63
2022/06/09 17:02:09;;;;;;;0.67;0.67;;;18.70;91.80;;;;;;4917124;29;20202;-64
2022/06/09 17:04:35;;;;;;;0.50;0.50;;;18.70;91.70;;;;;;4915741;29;20213;-63
2022/06/09 17:07:00;;;;;;;1.13;1.13;;;18.60;91.20;;;;;;4913080;29;20759;-63
2022/06/09 17:09:29;;;;;;;1.67;0.73;;;18.50;90.70;;;;;;4917238;29;20182;-64
2022/06/09 17:11:57;;;;;;;0.60;0.50;;;18.50;90.50;;;;;;4917027;29;20174;-64
2022/06/09 17:14:23;;;;;;;0.50;0.50;;;18.50;90.40;;;;;;4915086;29;20462;-64
2022/06/09 17:16:49;;;;;;;0.70;0.70;;;18.40;90.30;;;;;;4916840;29;20413;-66
2022/06/09 17:19:15;;;;;;;0.40;0.40;;;18.50;90.30;;;;;;4914563;29;20455;-65
2022/06/09 17:21:43;;;;;;;0.90;0.70;;;18.40;90.60;;;;;;4898137;29;20412;-63
2022/06/09 17:24:10;;;;;;;0.50;0.50;;;18.30;90.40;;;;;;4897880;29;20485;-63
2022/06/09 17:26:37;;;;;;;1.43;0.80;;;18.30;90.70;;;;;;4897424;29;20423;-62
2022/06/09 17:29:04;;;;;;;1.67;1.00;;;18.20;90.90;;;;;;4903085;29;20477;-64
2022/06/09 17:31:30;;;;;;;0.97;0.97;;;18.20;91.10;;;;;;4916689;29;20860;-63
2022/06/09 17:33:56;;;;;;;0.73;0.73;;;18.10;90.70;;;;;;4914849;29;20485;-64
2022/06/09 17:36:22;;;;;;;0.40;0.40;;;18.10;91.20;;;;;;4913224;29;20516;-63
2022/06/09 17:38:49;;;;;;;0.70;0.70;;;17.90;91.30;;;;;;4912820;29;21064;-65
2022/06/09 17:41:15;;;;;;;1.57;0.70;;;17.90;91.20;;;;;;4916778;29;20413;-64